Wednesday, November 14, 2018, 8:58 PM EST
Back to Local

K1V4, St Johnsbury Fairbanks

Location: Saint Johnsbury, VT, United States Lat: 44.417
Local Time: 8:58 PM EST ( 1:58 GMT) Lon: -72.017
Time Zone: US/Eastern Elev: 695 ft

Show me the last for .
Show Coded

Time T Td Feel RH Dir Speed Gust Alt SLP Vis Weather Sky Remarks
2018-11-14 19:54 14 6 - 70 - - - 30.52 30.58 0 None
2018-11-14 18:54 15 6 - 66 - - - 30.49 30.55 0 6-hr Min Temp (7pm): 14.0°F
6-hr Max Temp (7pm): 19.0°F
2018-11-14 17:54 14 6 - 70 - - - 30.47 30.53 0 None
2018-11-14 16:54 15 6 - 66 - - - 30.44 30.50 0 None
2018-11-14 15:54 16 6 - 64 - - - 30.41 30.47 0 None
2018-11-14 14:54 18 6 - 58 - - - 30.38 30.43 0 None
2018-11-14 13:54 17 5 - 58 - - - 30.34 30.40 0 Pressure rising rapidly
2018-11-14 12:54 17 6 - 61 - - - 30.31 30.37 0 6-hr Min Temp (1pm): 15.1°F
6-hr Max Temp (1pm): 18.0°F
2018-11-14 11:54 16 4 - 58 - - - 30.30 30.36 0 None
2018-11-14 10:54 17 7 - 63 - - - 30.28 30.33 0 None
2018-11-14 09:54 17 8 - 67 - - - 30.25 30.30 0 None
2018-11-14 08:54 16 8 - 70 - - - 30.22 30.27 0 None
2018-11-14 07:54 15 8 - 73 - - - 30.20 30.24 0 None
2018-11-14 06:54 15 8 - 73 - - - 30.16 30.20 0 24-hr Precip Total (7am): 0.55"
6-hr Min Temp (7am): 15.1°F
6-hr Max Temp (7am): 19.9°F
2018-11-14 05:54 16 7 - 66 - - - 30.13 30.18 0 None
2018-11-14 04:54 17 7 - 63 - - - 30.11 30.15 0 None
2018-11-14 03:54 17 7 - 63 - - - 30.07 30.11 0 None
2018-11-14 02:54 18 8 - 64 - - - 30.05 30.09 0 None
2018-11-14 01:54 19 9 - 64 - - - 30.04 30.08 0 None
2018-11-14 00:54 20 10 - 64 - - - 30.02 30.06 0 6-hr Precip Total (1am): 0.01"
6-hr Min Temp (1am): 19.9°F
6-hr Max Temp (1am): 35.1°F
2018-11-13 23:54 21 10 - 61 - - - 30.02 30.06 0 24-hr Min Temp (12am): 21.0°F
24-hr Max Temp (12am): 35.1°F
2018-11-13 22:54 24 14 - 64 - - - 29.99 30.03 0 None
2018-11-13 21:54 26 15 - 62 - - - 29.94 29.98 0 Pressure rising rapidly
6-hr Precip Total (10pm): 0.01"

Support USWX by starting your Amazon purchase here.